sensor_id;sensor_type;location;lat;lon;timestamp;P1;durP1;ratioP1;P2;durP2;ratioP2
38591;SDS011;24356;48.460;11.450;2022-08-19T00:01:20;14.93;;;12.00;;
38591;SDS011;24356;48.460;11.450;2022-08-19T00:03:46;14.73;;;11.35;;
38591;SDS011;24356;48.460;11.450;2022-08-19T00:06:13;14.10;;;11.35;;
38591;SDS011;24356;48.460;11.450;2022-08-19T00:08:39;15.55;;;12.45;;
38591;SDS011;24356;48.460;11.450;2022-08-19T00:11:05;15.82;;;11.85;;
38591;SDS011;24356;48.460;11.450;2022-08-19T00:13:32;12.98;;;10.60;;
38591;SDS011;24356;48.460;11.450;2022-08-19T00:15:58;13.82;;;11.98;;
38591;SDS011;24356;48.460;11.450;2022-08-19T00:18:24;13.07;;;11.05;;
38591;SDS011;24356;48.460;11.450;2022-08-19T00:20:50;18.17;;;12.45;;
38591;SDS011;24356;48.460;11.450;2022-08-19T00:23:16;15.63;;;11.93;;
38591;SDS011;24356;48.460;11.450;2022-08-19T00:25:42;17.00;;;12.57;;
38591;SDS011;24356;48.460;11.450;2022-08-19T00:28:07;15.05;;;12.23;;
38591;SDS011;24356;48.460;11.450;2022-08-19T00:30:33;11.07;;;9.48;;
38591;SDS011;24356;48.460;11.450;2022-08-19T00:32:59;13.52;;;10.65;;
38591;SDS011;24356;48.460;11.450;2022-08-19T00:35:24;14.82;;;11.77;;
38591;SDS011;24356;48.460;11.450;2022-08-19T00:37:52;16.55;;;13.25;;
38591;SDS011;24356;48.460;11.450;2022-08-19T00:40:18;14.13;;;10.50;;
38591;SDS011;24356;48.460;11.450;2022-08-19T00:42:44;15.75;;;12.18;;
38591;SDS011;24356;48.460;11.450;2022-08-19T00:45:12;11.35;;;9.65;;
38591;SDS011;24356;48.460;11.450;2022-08-19T00:47:43;13.02;;;9.65;;
38591;SDS011;24356;48.460;11.450;2022-08-19T00:50:10;15.82;;;11.65;;
38591;SDS011;24356;48.460;11.450;2022-08-19T00:52:40;12.60;;;9.52;;
38591;SDS011;24356;48.460;11.450;2022-08-19T00:55:10;9.85;;;8.48;;
38591;SDS011;24356;48.460;11.450;2022-08-19T00:57:40;10.75;;;8.43;;
38591;SDS011;24356;48.460;11.450;2022-08-19T01:00:10;14.48;;;10.25;;
38591;SDS011;24356;48.460;11.450;2022-08-19T01:02:39;11.20;;;9.50;;
38591;SDS011;24356;48.460;11.450;2022-08-19T01:05:07;11.73;;;9.45;;
38591;SDS011;24356;48.460;11.450;2022-08-19T01:07:35;9.63;;;7.95;;
38591;SDS011;24356;48.460;11.450;2022-08-19T01:10:04;9.18;;;7.30;;
38591;SDS011;24356;48.460;11.450;2022-08-19T01:12:32;11.52;;;8.65;;
38591;SDS011;24356;48.460;11.450;2022-08-19T01:14:59;13.60;;;9.88;;
38591;SDS011;24356;48.460;11.450;2022-08-19T01:17:24;11.40;;;8.77;;
38591;SDS011;24356;48.460;11.450;2022-08-19T01:19:50;7.70;;;5.95;;
38591;SDS011;24356;48.460;11.450;2022-08-19T01:22:19;7.68;;;6.22;;
38591;SDS011;24356;48.460;11.450;2022-08-19T01:25:02;7.97;;;6.70;;
38591;SDS011;24356;48.460;11.450;2022-08-19T01:27:36;10.32;;;6.75;;
38591;SDS011;24356;48.460;11.450;2022-08-19T01:30:06;8.27;;;7.40;;
38591;SDS011;24356;48.460;11.450;2022-08-19T01:32:33;7.85;;;5.97;;
38591;SDS011;24356;48.460;11.450;2022-08-19T01:35:00;7.45;;;5.30;;
38591;SDS011;24356;48.460;11.450;2022-08-19T01:37:27;9.35;;;6.68;;
38591;SDS011;24356;48.460;11.450;2022-08-19T01:39:55;7.78;;;5.90;;
38591;SDS011;24356;48.460;11.450;2022-08-19T01:42:21;8.88;;;6.10;;
38591;SDS011;24356;48.460;11.450;2022-08-19T01:44:47;7.05;;;6.07;;
38591;SDS011;24356;48.460;11.450;2022-08-19T01:47:12;6.25;;;5.22;;
38591;SDS011;24356;48.460;11.450;2022-08-19T01:49:38;6.47;;;5.57;;
38591;SDS011;24356;48.460;11.450;2022-08-19T01:52:04;8.65;;;6.18;;
38591;SDS011;24356;48.460;11.450;2022-08-19T01:54:30;7.40;;;6.28;;
38591;SDS011;24356;48.460;11.450;2022-08-19T01:57:02;7.47;;;6.05;;
38591;SDS011;24356;48.460;11.450;2022-08-19T01:59:31;4.85;;;4.35;;
38591;SDS011;24356;48.460;11.450;2022-08-19T02:01:57;4.88;;;4.30;;
38591;SDS011;24356;48.460;11.450;2022-08-19T02:04:23;4.93;;;4.30;;
38591;SDS011;24356;48.460;11.450;2022-08-19T02:06:50;6.68;;;4.85;;
38591;SDS011;24356;48.460;11.450;2022-08-19T02:09:16;8.10;;;4.50;;
38591;SDS011;24356;48.460;11.450;2022-08-19T02:11:41;9.27;;;5.68;;
38591;SDS011;24356;48.460;11.450;2022-08-19T02:14:07;6.95;;;4.13;;
38591;SDS011;24356;48.460;11.450;2022-08-19T02:16:34;5.05;;;4.40;;
38591;SDS011;24356;48.460;11.450;2022-08-19T02:19:00;7.15;;;5.45;;
38591;SDS011;24356;48.460;11.450;2022-08-19T02:21:27;3.80;;;3.38;;
38591;SDS011;24356;48.460;11.450;2022-08-19T02:23:54;5.05;;;4.38;;
38591;SDS011;24356;48.460;11.450;2022-08-19T02:26:20;4.38;;;3.97;;
38591;SDS011;24356;48.460;11.450;2022-08-19T02:28:46;4.18;;;3.22;;
38591;SDS011;24356;48.460;11.450;2022-08-19T02:31:14;6.47;;;5.13;;
38591;SDS011;24356;48.460;11.450;2022-08-19T02:33:42;6.65;;;4.90;;
38591;SDS011;24356;48.460;11.450;2022-08-19T02:36:10;5.43;;;4.20;;
38591;SDS011;24356;48.460;11.450;2022-08-19T02:38:37;5.22;;;4.13;;
38591;SDS011;24356;48.460;11.450;2022-08-19T02:41:06;5.38;;;4.00;;
38591;SDS011;24356;48.460;11.450;2022-08-19T02:43:36;6.47;;;5.68;;
38591;SDS011;24356;48.460;11.450;2022-08-19T02:46:10;5.63;;;5.03;;
38591;SDS011;24356;48.460;11.450;2022-08-19T02:48:45;6.23;;;5.63;;
38591;SDS011;24356;48.460;11.450;2022-08-19T02:51:16;5.55;;;3.67;;
38591;SDS011;24356;48.460;11.450;2022-08-19T02:53:47;8.98;;;5.72;;
38591;SDS011;24356;48.460;11.450;2022-08-19T02:56:13;4.45;;;4.03;;
38591;SDS011;24356;48.460;11.450;2022-08-19T02:58:39;6.15;;;5.18;;
38591;SDS011;24356;48.460;11.450;2022-08-19T03:01:06;4.25;;;3.85;;
38591;SDS011;24356;48.460;11.450;2022-08-19T03:03:32;4.25;;;3.85;;
38591;SDS011;24356;48.460;11.450;2022-08-19T03:06:08;8.07;;;5.43;;
38591;SDS011;24356;48.460;11.450;2022-08-19T03:08:36;5.45;;;4.05;;
38591;SDS011;24356;48.460;11.450;2022-08-19T03:11:04;5.07;;;4.20;;
38591;SDS011;24356;48.460;11.450;2022-08-19T03:13:29;4.70;;;4.20;;
38591;SDS011;24356;48.460;11.450;2022-08-19T03:15:55;8.15;;;6.13;;
38591;SDS011;24356;48.460;11.450;2022-08-19T03:18:21;4.80;;;4.25;;
38591;SDS011;24356;48.460;11.450;2022-08-19T03:20:48;5.93;;;4.65;;
38591;SDS011;24356;48.460;11.450;2022-08-19T03:23:15;6.60;;;5.53;;
38591;SDS011;24356;48.460;11.450;2022-08-19T03:25:43;7.72;;;5.53;;
38591;SDS011;24356;48.460;11.450;2022-08-19T03:28:11;9.00;;;4.97;;
38591;SDS011;24356;48.460;11.450;2022-08-19T03:30:38;7.25;;;6.47;;
38591;SDS011;24356;48.460;11.450;2022-08-19T03:33:05;8.80;;;6.10;;
38591;SDS011;24356;48.460;11.450;2022-08-19T03:35:32;9.00;;;5.47;;
38591;SDS011;24356;48.460;11.450;2022-08-19T03:37:58;9.73;;;7.20;;
38591;SDS011;24356;48.460;11.450;2022-08-19T03:40:26;8.23;;;6.57;;
38591;SDS011;24356;48.460;11.450;2022-08-19T03:42:51;10.00;;;8.27;;
38591;SDS011;24356;48.460;11.450;2022-08-19T03:45:17;12.80;;;8.75;;
38591;SDS011;24356;48.460;11.450;2022-08-19T03:47:43;8.25;;;6.78;;
38591;SDS011;24356;48.460;11.450;2022-08-19T03:50:08;8.13;;;6.35;;
38591;SDS011;24356;48.460;11.450;2022-08-19T03:52:34;6.10;;;4.75;;
38591;SDS011;24356;48.460;11.450;2022-08-19T03:55:01;7.28;;;5.07;;
38591;SDS011;24356;48.460;11.450;2022-08-19T03:57:27;5.47;;;4.47;;
38591;SDS011;24356;48.460;11.450;2022-08-19T03:59:53;7.60;;;6.35;;
38591;SDS011;24356;48.460;11.450;2022-08-19T04:02:18;9.25;;;7.15;;
38591;SDS011;24356;48.460;11.450;2022-08-19T04:04:44;10.32;;;8.35;;
38591;SDS011;24356;48.460;11.450;2022-08-19T04:07:11;7.25;;;6.55;;
38591;SDS011;24356;48.460;11.450;2022-08-19T04:09:41;11.63;;;9.85;;
38591;SDS011;24356;48.460;11.450;2022-08-19T04:12:07;9.30;;;6.97;;
38591;SDS011;24356;48.460;11.450;2022-08-19T04:14:33;10.77;;;7.07;;
38591;SDS011;24356;48.460;11.450;2022-08-19T04:17:00;13.52;;;10.68;;
38591;SDS011;24356;48.460;11.450;2022-08-19T04:19:28;8.70;;;7.05;;
38591;SDS011;24356;48.460;11.450;2022-08-19T04:21:55;10.18;;;8.40;;
38591;SDS011;24356;48.460;11.450;2022-08-19T04:24:20;11.63;;;9.07;;
38591;SDS011;24356;48.460;11.450;2022-08-19T04:26:47;13.20;;;9.65;;
38591;SDS011;24356;48.460;11.450;2022-08-19T04:29:24;13.38;;;10.35;;
38591;SDS011;24356;48.460;11.450;2022-08-19T04:31:52;16.25;;;11.65;;
38591;SDS011;24356;48.460;11.450;2022-08-19T04:34:22;11.88;;;8.32;;
38591;SDS011;24356;48.460;11.450;2022-08-19T04:36:49;14.98;;;12.05;;
38591;SDS011;24356;48.460;11.450;2022-08-19T04:39:18;11.00;;;8.60;;
38591;SDS011;24356;48.460;11.450;2022-08-19T04:41:45;15.60;;;11.95;;
38591;SDS011;24356;48.460;11.450;2022-08-19T04:44:31;14.43;;;9.02;;
38591;SDS011;24356;48.460;11.450;2022-08-19T04:46:59;15.52;;;12.15;;
38591;SDS011;24356;48.460;11.450;2022-08-19T04:49:25;9.43;;;7.70;;
38591;SDS011;24356;48.460;11.450;2022-08-19T04:51:52;8.98;;;6.70;;
38591;SDS011;24356;48.460;11.450;2022-08-19T04:54:19;8.23;;;6.43;;
38591;SDS011;24356;48.460;11.450;2022-08-19T04:56:51;12.05;;;9.00;;
38591;SDS011;24356;48.460;11.450;2022-08-19T04:59:18;19.35;;;13.70;;
38591;SDS011;24356;48.460;11.450;2022-08-19T05:01:46;15.05;;;11.35;;
38591;SDS011;24356;48.460;11.450;2022-08-19T05:04:16;10.80;;;8.50;;
38591;SDS011;24356;48.460;11.450;2022-08-19T05:06:44;21.48;;;16.08;;
38591;SDS011;24356;48.460;11.450;2022-08-19T05:09:12;20.15;;;13.25;;
38591;SDS011;24356;48.460;11.450;2022-08-19T05:11:37;16.83;;;12.05;;
38591;SDS011;24356;48.460;11.450;2022-08-19T05:14:04;21.90;;;13.27;;
38591;SDS011;24356;48.460;11.450;2022-08-19T05:16:30;21.55;;;13.88;;
38591;SDS011;24356;48.460;11.450;2022-08-19T05:18:57;19.95;;;14.10;;
38591;SDS011;24356;48.460;11.450;2022-08-19T05:21:52;25.77;;;17.67;;
38591;SDS011;24356;48.460;11.450;2022-08-19T05:24:36;14.82;;;11.15;;
38591;SDS011;24356;48.460;11.450;2022-08-19T05:27:02;21.27;;;15.25;;
38591;SDS011;24356;48.460;11.450;2022-08-19T05:29:30;16.70;;;11.55;;
38591;SDS011;24356;48.460;11.450;2022-08-19T05:31:59;22.80;;;16.65;;
38591;SDS011;24356;48.460;11.450;2022-08-19T05:34:25;24.85;;;16.98;;
38591;SDS011;24356;48.460;11.450;2022-08-19T05:36:56;18.77;;;13.55;;
38591;SDS011;24356;48.460;11.450;2022-08-19T05:39:24;17.33;;;12.48;;
38591;SDS011;24356;48.460;11.450;2022-08-19T05:41:54;25.13;;;17.60;;
38591;SDS011;24356;48.460;11.450;2022-08-19T05:44:22;15.52;;;12.48;;
38591;SDS011;24356;48.460;11.450;2022-08-19T05:46:48;20.33;;;13.15;;
38591;SDS011;24356;48.460;11.450;2022-08-19T05:49:18;19.63;;;12.43;;
38591;SDS011;24356;48.460;11.450;2022-08-19T05:51:45;26.35;;;18.10;;
38591;SDS011;24356;48.460;11.450;2022-08-19T05:54:10;18.50;;;12.45;;
38591;SDS011;24356;48.460;11.450;2022-08-19T05:56:38;17.77;;;12.75;;
38591;SDS011;24356;48.460;11.450;2022-08-19T05:59:05;30.73;;;20.08;;
38591;SDS011;24356;48.460;11.450;2022-08-19T06:01:34;27.88;;;18.50;;
38591;SDS011;24356;48.460;11.450;2022-08-19T06:04:02;19.67;;;14.15;;
38591;SDS011;24356;48.460;11.450;2022-08-19T06:06:32;27.08;;;18.95;;
38591;SDS011;24356;48.460;11.450;2022-08-19T06:09:03;33.65;;;21.33;;
38591;SDS011;24356;48.460;11.450;2022-08-19T06:14:00;21.23;;;14.25;;
38591;SDS011;24356;48.460;11.450;2022-08-19T06:16:29;30.80;;;22.42;;
38591;SDS011;24356;48.460;11.450;2022-08-19T06:18:55;15.88;;;12.35;;
38591;SDS011;24356;48.460;11.450;2022-08-19T06:21:23;34.03;;;24.08;;
38591;SDS011;24356;48.460;11.450;2022-08-19T06:23:52;21.83;;;13.98;;
38591;SDS011;24356;48.460;11.450;2022-08-19T06:26:19;35.90;;;25.23;;
38591;SDS011;24356;48.460;11.450;2022-08-19T06:28:46;33.85;;;21.13;;
38591;SDS011;24356;48.460;11.450;2022-08-19T06:31:19;25.23;;;16.95;;
38591;SDS011;24356;48.460;11.450;2022-08-19T06:33:47;33.78;;;22.02;;
38591;SDS011;24356;48.460;11.450;2022-08-19T06:36:20;29.83;;;19.25;;
38591;SDS011;24356;48.460;11.450;2022-08-19T06:38:56;27.92;;;18.85;;
38591;SDS011;24356;48.460;11.450;2022-08-19T06:41:23;29.95;;;21.70;;
38591;SDS011;24356;48.460;11.450;2022-08-19T06:43:52;36.63;;;23.80;;
38591;SDS011;24356;48.460;11.450;2022-08-19T06:46:18;21.23;;;16.55;;
38591;SDS011;24356;48.460;11.450;2022-08-19T06:48:45;29.20;;;20.70;;
38591;SDS011;24356;48.460;11.450;2022-08-19T06:51:13;23.10;;;16.88;;
38591;SDS011;24356;48.460;11.450;2022-08-19T06:53:43;27.02;;;17.55;;
38591;SDS011;24356;48.460;11.450;2022-08-19T06:56:16;30.80;;;22.42;;
38591;SDS011;24356;48.460;11.450;2022-08-19T06:58:44;34.92;;;24.08;;
38591;SDS011;24356;48.460;11.450;2022-08-19T07:01:11;28.17;;;19.83;;
38591;SDS011;24356;48.460;11.450;2022-08-19T07:03:38;31.50;;;22.08;;
38591;SDS011;24356;48.460;11.450;2022-08-19T07:06:05;23.42;;;15.00;;
38591;SDS011;24356;48.460;11.450;2022-08-19T07:08:34;29.55;;;19.85;;
38591;SDS011;24356;48.460;11.450;2022-08-19T07:11:06;29.95;;;21.65;;
38591;SDS011;24356;48.460;11.450;2022-08-19T07:13:33;23.95;;;17.83;;
38591;SDS011;24356;48.460;11.450;2022-08-19T07:16:05;22.20;;;16.67;;
38591;SDS011;24356;48.460;11.450;2022-08-19T07:18:31;33.30;;;22.20;;
38591;SDS011;24356;48.460;11.450;2022-08-19T07:21:09;33.35;;;22.45;;
38591;SDS011;24356;48.460;11.450;2022-08-19T07:23:40;30.92;;;21.10;;
38591;SDS011;24356;48.460;11.450;2022-08-19T07:26:11;25.42;;;18.63;;
38591;SDS011;24356;48.460;11.450;2022-08-19T07:28:42;23.98;;;15.98;;
38591;SDS011;24356;48.460;11.450;2022-08-19T07:31:10;30.30;;;21.13;;
38591;SDS011;24356;48.460;11.450;2022-08-19T07:33:37;21.80;;;16.35;;
38591;SDS011;24356;48.460;11.450;2022-08-19T07:36:05;21.85;;;15.82;;
38591;SDS011;24356;48.460;11.450;2022-08-19T07:38:33;26.02;;;19.42;;
38591;SDS011;24356;48.460;11.450;2022-08-19T07:41:00;31.20;;;21.52;;
38591;SDS011;24356;48.460;11.450;2022-08-19T07:43:26;23.63;;;17.33;;
38591;SDS011;24356;48.460;11.450;2022-08-19T07:45:52;17.80;;;14.02;;
38591;SDS011;24356;48.460;11.450;2022-08-19T07:48:22;28.85;;;21.75;;
38591;SDS011;24356;48.460;11.450;2022-08-19T07:50:52;33.42;;;23.63;;
38591;SDS011;24356;48.460;11.450;2022-08-19T07:53:19;33.38;;;24.02;;
38591;SDS011;24356;48.460;11.450;2022-08-19T07:55:47;25.98;;;17.55;;
38591;SDS011;24356;48.460;11.450;2022-08-19T07:58:14;34.38;;;22.90;;
38591;SDS011;24356;48.460;11.450;2022-08-19T08:00:42;34.42;;;22.65;;
38591;SDS011;24356;48.460;11.450;2022-08-19T08:03:10;25.98;;;19.40;;
38591;SDS011;24356;48.460;11.450;2022-08-19T08:05:36;37.85;;;27.35;;
38591;SDS011;24356;48.460;11.450;2022-08-19T08:08:20;22.92;;;17.38;;
38591;SDS011;24356;48.460;11.450;2022-08-19T08:11:04;34.72;;;23.67;;
38591;SDS011;24356;48.460;11.450;2022-08-19T08:13:30;27.65;;;20.50;;
38591;SDS011;24356;48.460;11.450;2022-08-19T08:16:01;35.88;;;23.85;;
38591;SDS011;24356;48.460;11.450;2022-08-19T08:18:27;28.55;;;20.17;;
38591;SDS011;24356;48.460;11.450;2022-08-19T08:20:53;31.98;;;22.52;;
38591;SDS011;24356;48.460;11.450;2022-08-19T08:23:19;30.63;;;22.35;;
38591;SDS011;24356;48.460;11.450;2022-08-19T08:25:47;34.58;;;24.70;;
38591;SDS011;24356;48.460;11.450;2022-08-19T08:28:14;34.17;;;24.67;;
38591;SDS011;24356;48.460;11.450;2022-08-19T08:30:41;33.70;;;23.88;;
38591;SDS011;24356;48.460;11.450;2022-08-19T08:33:08;34.72;;;24.08;;
38591;SDS011;24356;48.460;11.450;2022-08-19T08:35:34;33.35;;;24.25;;
38591;SDS011;24356;48.460;11.450;2022-08-19T08:38:01;34.67;;;22.50;;
38591;SDS011;24356;48.460;11.450;2022-08-19T08:43:08;29.17;;;21.88;;
38591;SDS011;24356;48.460;11.450;2022-08-19T08:46:12;30.08;;;22.15;;
38591;SDS011;24356;48.460;11.450;2022-08-19T08:51:28;34.70;;;24.70;;
38591;SDS011;24356;48.460;11.450;2022-08-19T08:53:58;23.77;;;16.13;;
38591;SDS011;24356;48.460;11.450;2022-08-19T08:56:25;28.80;;;20.08;;
38591;SDS011;24356;48.460;11.450;2022-08-19T09:01:26;27.05;;;19.90;;
38591;SDS011;24356;48.460;11.450;2022-08-19T09:03:52;28.30;;;21.13;;
38591;SDS011;24356;48.460;11.450;2022-08-19T09:06:22;25.67;;;19.88;;
38591;SDS011;24356;48.460;11.450;2022-08-19T09:16:48;27.73;;;20.98;;
38591;SDS011;24356;48.460;11.450;2022-08-19T09:19:15;32.13;;;22.83;;
38591;SDS011;24356;48.460;11.450;2022-08-19T09:21:42;36.42;;;23.80;;
38591;SDS011;24356;48.460;11.450;2022-08-19T09:24:08;27.95;;;20.52;;
38591;SDS011;24356;48.460;11.450;2022-08-19T09:26:33;32.22;;;22.67;;
38591;SDS011;24356;48.460;11.450;2022-08-19T09:28:59;29.08;;;20.98;;
38591;SDS011;24356;48.460;11.450;2022-08-19T09:31:27;25.58;;;19.35;;
38591;SDS011;24356;48.460;11.450;2022-08-19T09:33:55;31.33;;;22.08;;
38591;SDS011;24356;48.460;11.450;2022-08-19T09:36:24;24.95;;;19.13;;
38591;SDS011;24356;48.460;11.450;2022-08-19T09:38:52;31.58;;;23.27;;
38591;SDS011;24356;48.460;11.450;2022-08-19T09:41:19;47.25;;;31.17;;
38591;SDS011;24356;48.460;11.450;2022-08-19T09:43:48;33.22;;;23.40;;
38591;SDS011;24356;48.460;11.450;2022-08-19T09:46:17;33.13;;;23.17;;
38591;SDS011;24356;48.460;11.450;2022-08-19T09:48:45;32.63;;;23.10;;
38591;SDS011;24356;48.460;11.450;2022-08-19T09:51:14;29.58;;;21.70;;
38591;SDS011;24356;48.460;11.450;2022-08-19T09:53:41;42.50;;;27.88;;
38591;SDS011;24356;48.460;11.450;2022-08-19T09:56:08;39.50;;;26.67;;
38591;SDS011;24356;48.460;11.450;2022-08-19T09:58:34;32.90;;;22.65;;
38591;SDS011;24356;48.460;11.450;2022-08-19T10:01:01;29.75;;;21.48;;
38591;SDS011;24356;48.460;11.450;2022-08-19T10:03:28;30.13;;;21.52;;
38591;SDS011;24356;48.460;11.450;2022-08-19T10:05:56;31.73;;;20.52;;
38591;SDS011;24356;48.460;11.450;2022-08-19T10:08:25;34.13;;;23.23;;
38591;SDS011;24356;48.460;11.450;2022-08-19T10:10:53;37.10;;;24.08;;
38591;SDS011;24356;48.460;11.450;2022-08-19T10:13:21;38.88;;;25.23;;
38591;SDS011;24356;48.460;11.450;2022-08-19T10:15:50;43.35;;;24.45;;
38591;SDS011;24356;48.460;11.450;2022-08-19T10:18:17;37.65;;;25.15;;
38591;SDS011;24356;48.460;11.450;2022-08-19T10:20:44;30.63;;;21.95;;
38591;SDS011;24356;48.460;11.450;2022-08-19T10:23:11;34.42;;;24.60;;
38591;SDS011;24356;48.460;11.450;2022-08-19T10:25:37;42.22;;;27.98;;
38591;SDS011;24356;48.460;11.450;2022-08-19T10:28:03;40.25;;;24.95;;
38591;SDS011;24356;48.460;11.450;2022-08-19T10:30:30;29.83;;;21.08;;
38591;SDS011;24356;48.460;11.450;2022-08-19T10:32:56;33.80;;;23.05;;
38591;SDS011;24356;48.460;11.450;2022-08-19T10:35:22;37.97;;;25.67;;
38591;SDS011;24356;48.460;11.450;2022-08-19T10:37:50;46.00;;;27.48;;
38591;SDS011;24356;48.460;11.450;2022-08-19T10:40:16;34.65;;;23.77;;
38591;SDS011;24356;48.460;11.450;2022-08-19T10:42:41;37.47;;;25.05;;
38591;SDS011;24356;48.460;11.450;2022-08-19T10:45:07;39.08;;;26.67;;
38591;SDS011;24356;48.460;11.450;2022-08-19T10:47:34;34.15;;;23.20;;
38591;SDS011;24356;48.460;11.450;2022-08-19T10:50:00;34.38;;;23.15;;
38591;SDS011;24356;48.460;11.450;2022-08-19T10:52:46;31.20;;;21.27;;
38591;SDS011;24356;48.460;11.450;2022-08-19T10:55:13;34.10;;;22.38;;
38591;SDS011;24356;48.460;11.450;2022-08-19T10:57:56;27.50;;;18.70;;
38591;SDS011;24356;48.460;11.450;2022-08-19T11:00:22;29.58;;;19.33;;
38591;SDS011;24356;48.460;11.450;2022-08-19T11:02:49;36.45;;;22.30;;
38591;SDS011;24356;48.460;11.450;2022-08-19T11:05:16;31.85;;;19.83;;
38591;SDS011;24356;48.460;11.450;2022-08-19T11:07:45;33.78;;;20.85;;
38591;SDS011;24356;48.460;11.450;2022-08-19T11:10:11;31.65;;;19.85;;
38591;SDS011;24356;48.460;11.450;2022-08-19T11:12:39;29.00;;;19.23;;
38591;SDS011;24356;48.460;11.450;2022-08-19T11:15:06;26.52;;;16.20;;
38591;SDS011;24356;48.460;11.450;2022-08-19T11:17:33;17.80;;;12.93;;
38591;SDS011;24356;48.460;11.450;2022-08-19T11:20:00;19.20;;;13.77;;
38591;SDS011;24356;48.460;11.450;2022-08-19T11:22:29;19.98;;;14.23;;
38591;SDS011;24356;48.460;11.450;2022-08-19T11:24:55;18.17;;;12.23;;
38591;SDS011;24356;48.460;11.450;2022-08-19T11:27:20;15.73;;;11.77;;
38591;SDS011;24356;48.460;11.450;2022-08-19T11:29:46;14.48;;;10.45;;
38591;SDS011;24356;48.460;11.450;2022-08-19T11:32:11;13.35;;;10.20;;
38591;SDS011;24356;48.460;11.450;2022-08-19T11:34:38;12.85;;;9.90;;
38591;SDS011;24356;48.460;11.450;2022-08-19T11:37:05;11.48;;;8.52;;
38591;SDS011;24356;48.460;11.450;2022-08-19T11:39:31;9.27;;;8.00;;
38591;SDS011;24356;48.460;11.450;2022-08-19T11:41:59;8.95;;;6.88;;
38591;SDS011;24356;48.460;11.450;2022-08-19T11:44:26;8.27;;;6.10;;
38591;SDS011;24356;48.460;11.450;2022-08-19T11:46:55;6.63;;;5.80;;
38591;SDS011;24356;48.460;11.450;2022-08-19T11:49:21;6.28;;;5.10;;
38591;SDS011;24356;48.460;11.450;2022-08-19T11:51:46;4.50;;;4.10;;
38591;SDS011;24356;48.460;11.450;2022-08-19T11:54:15;4.90;;;4.32;;
38591;SDS011;24356;48.460;11.450;2022-08-19T11:56:41;4.97;;;3.95;;
38591;SDS011;24356;48.460;11.450;2022-08-19T11:59:07;5.03;;;3.75;;
38591;SDS011;24356;48.460;11.450;2022-08-19T12:01:35;3.42;;;3.03;;
38591;SDS011;24356;48.460;11.450;2022-08-19T12:04:02;2.42;;;2.22;;
38591;SDS011;24356;48.460;11.450;2022-08-19T12:06:30;2.33;;;2.13;;
38591;SDS011;24356;48.460;11.450;2022-08-19T12:08:58;2.20;;;2.00;;
38591;SDS011;24356;48.460;11.450;2022-08-19T12:11:26;2.05;;;1.85;;
38591;SDS011;24356;48.460;11.450;2022-08-19T12:13:52;4.30;;;1.80;;
38591;SDS011;24356;48.460;11.450;2022-08-19T12:16:23;4.18;;;2.10;;
38591;SDS011;24356;48.460;11.450;2022-08-19T12:18:51;2.17;;;1.75;;
38591;SDS011;24356;48.460;11.450;2022-08-19T12:21:27;2.35;;;1.92;;
38591;SDS011;24356;48.460;11.450;2022-08-19T12:23:54;2.80;;;1.85;;
38591;SDS011;24356;48.460;11.450;2022-08-19T12:26:20;2.88;;;2.30;;
38591;SDS011;24356;48.460;11.450;2022-08-19T12:28:46;3.17;;;2.60;;
38591;SDS011;24356;48.460;11.450;2022-08-19T12:31:13;3.13;;;2.78;;
38591;SDS011;24356;48.460;11.450;2022-08-19T12:33:40;4.22;;;2.75;;
38591;SDS011;24356;48.460;11.450;2022-08-19T12:36:08;4.15;;;3.08;;
38591;SDS011;24356;48.460;11.450;2022-08-19T12:38:36;4.80;;;3.15;;
38591;SDS011;24356;48.460;11.450;2022-08-19T12:41:04;4.78;;;3.10;;
38591;SDS011;24356;48.460;11.450;2022-08-19T12:43:31;4.70;;;3.38;;
38591;SDS011;24356;48.460;11.450;2022-08-19T12:46:00;4.25;;;3.22;;
38591;SDS011;24356;48.460;11.450;2022-08-19T12:48:26;5.50;;;3.97;;
38591;SDS011;24356;48.460;11.450;2022-08-19T12:50:52;4.75;;;3.80;;
38591;SDS011;24356;48.460;11.450;2022-08-19T12:53:19;4.85;;;3.92;;
38591;SDS011;24356;48.460;11.450;2022-08-19T12:55:44;4.85;;;3.53;;
38591;SDS011;24356;48.460;11.450;2022-08-19T12:58:10;3.30;;;2.78;;
38591;SDS011;24356;48.460;11.450;2022-08-19T13:00:37;5.63;;;3.13;;
38591;SDS011;24356;48.460;11.450;2022-08-19T13:03:05;4.45;;;2.90;;
38591;SDS011;24356;48.460;11.450;2022-08-19T13:05:31;4.32;;;2.78;;
38591;SDS011;24356;48.460;11.450;2022-08-19T13:07:59;3.40;;;2.42;;
38591;SDS011;24356;48.460;11.450;2022-08-19T13:10:29;5.70;;;2.50;;
38591;SDS011;24356;48.460;11.450;2022-08-19T13:13:00;2.78;;;2.50;;
38591;SDS011;24356;48.460;11.450;2022-08-19T13:15:32;4.53;;;2.47;;
38591;SDS011;24356;48.460;11.450;2022-08-19T13:17:59;2.67;;;1.88;;
38591;SDS011;24356;48.460;11.450;2022-08-19T13:20:25;3.90;;;1.92;;
38591;SDS011;24356;48.460;11.450;2022-08-19T13:22:51;2.65;;;2.05;;
38591;SDS011;24356;48.460;11.450;2022-08-19T13:25:17;2.78;;;2.50;;
38591;SDS011;24356;48.460;11.450;2022-08-19T13:27:44;2.80;;;2.47;;
38591;SDS011;24356;48.460;11.450;2022-08-19T13:30:12;3.38;;;2.83;;
38591;SDS011;24356;48.460;11.450;2022-08-19T13:32:58;3.70;;;2.80;;
38591;SDS011;24356;48.460;11.450;2022-08-19T13:35:41;3.20;;;2.90;;
38591;SDS011;24356;48.460;11.450;2022-08-19T13:38:10;4.13;;;2.83;;
38591;SDS011;24356;48.460;11.450;2022-08-19T13:40:38;4.03;;;3.42;;
38591;SDS011;24356;48.460;11.450;2022-08-19T13:43:04;6.68;;;4.30;;
38591;SDS011;24356;48.460;11.450;2022-08-19T13:45:31;4.72;;;3.28;;
38591;SDS011;24356;48.460;11.450;2022-08-19T13:47:59;5.15;;;4.53;;
38591;SDS011;24356;48.460;11.450;2022-08-19T13:50:27;6.32;;;5.03;;
38591;SDS011;24356;48.460;11.450;2022-08-19T13:52:56;4.88;;;3.92;;
38591;SDS011;24356;48.460;11.450;2022-08-19T13:55:23;5.57;;;4.00;;
38591;SDS011;24356;48.460;11.450;2022-08-19T13:57:50;5.72;;;4.65;;
38591;SDS011;24356;48.460;11.450;2022-08-19T14:00:18;4.60;;;3.90;;
38591;SDS011;24356;48.460;11.450;2022-08-19T14:02:45;5.55;;;4.72;;
38591;SDS011;24356;48.460;11.450;2022-08-19T14:05:13;5.88;;;5.20;;
38591;SDS011;24356;48.460;11.450;2022-08-19T14:07:40;6.50;;;5.35;;
38591;SDS011;24356;48.460;11.450;2022-08-19T14:10:08;5.40;;;4.60;;
38591;SDS011;24356;48.460;11.450;2022-08-19T14:12:35;7.35;;;5.28;;
38591;SDS011;24356;48.460;11.450;2022-08-19T14:15:02;6.68;;;5.50;;
38591;SDS011;24356;48.460;11.450;2022-08-19T14:17:29;7.70;;;6.05;;
38591;SDS011;24356;48.460;11.450;2022-08-19T14:19:58;6.65;;;5.43;;
38591;SDS011;24356;48.460;11.450;2022-08-19T14:22:30;7.18;;;4.93;;
38591;SDS011;24356;48.460;11.450;2022-08-19T14:24:56;8.25;;;6.63;;
38591;SDS011;24356;48.460;11.450;2022-08-19T14:27:22;7.57;;;6.18;;
38591;SDS011;24356;48.460;11.450;2022-08-19T14:29:50;6.97;;;5.70;;
38591;SDS011;24356;48.460;11.450;2022-08-19T14:32:19;7.72;;;6.18;;
38591;SDS011;24356;48.460;11.450;2022-08-19T14:34:45;8.82;;;6.80;;
38591;SDS011;24356;48.460;11.450;2022-08-19T14:37:12;9.52;;;6.88;;
38591;SDS011;24356;48.460;11.450;2022-08-19T14:39:41;10.48;;;7.38;;
38591;SDS011;24356;48.460;11.450;2022-08-19T14:42:07;11.88;;;8.23;;
38591;SDS011;24356;48.460;11.450;2022-08-19T14:44:34;10.50;;;7.80;;